Pukou, China
Current Conditions -  °F | °C
As of 6:00 PM on Wednesday 22 Oct 2014 (Local Time) from ZSNJ Reporting Station
Haze Haze  
Wind Chill: 61°   Ceiling: Unl
Heat Index: 61°   Visibility: 2.1mi
Dew Point: 57°   Wind: 2mph
Humidity: 88%   Direction: 350°N
Pressure: 30.18"   Gusts: NA
Location:  32.1°N, 118.71°E
Report Text: ZSNJ 221000Z 35001MPS 3500 BR NSC 16/14 Q1022 NOSIG
Loading
Personal Weather Stations






























Interactive Weather Map
Tropical Storm Tracking
New forecast layout! Learn more

10-Day Weather Forecast

Advertisements
Track Severe Weather on mobile